sensor_id;sensor_type;location;lat;lon;timestamp;temperature;humidity
10437;DHT22;5265;50.006;9.202;2023-09-19T00:00:42;17.60;1.00
10437;DHT22;5265;50.006;9.202;2023-09-19T00:03:10;17.70;1.00
10437;DHT22;5265;50.006;9.202;2023-09-19T00:05:39;17.70;1.00
10437;DHT22;5265;50.006;9.202;2023-09-19T00:08:10;17.70;1.00
10437;DHT22;5265;50.006;9.202;2023-09-19T00:10:39;17.70;1.00
10437;DHT22;5265;50.006;9.202;2023-09-19T00:13:07;17.50;1.00
10437;DHT22;5265;50.006;9.202;2023-09-19T13:26:40;21.70;99.90
10437;DHT22;5265;50.006;9.202;2023-09-19T13:29:07;22.20;99.90
10437;DHT22;5265;50.006;9.202;2023-09-19T13:31:34;22.00;99.90
10437;DHT22;5265;50.006;9.202;2023-09-19T13:34:07;22.40;99.90
10437;DHT22;5265;50.006;9.202;2023-09-19T13:36:34;22.30;99.90
10437;DHT22;5265;50.006;9.202;2023-09-19T13:39:03;22.00;99.90
10437;DHT22;5265;50.006;9.202;2023-09-19T13:41:31;22.60;99.90
10437;DHT22;5265;50.006;9.202;2023-09-19T13:43:59;22.20;99.90
10437;DHT22;5265;50.006;9.202;2023-09-19T13:46:27;22.30;99.90
10437;DHT22;5265;50.006;9.202;2023-09-19T13:48:54;22.40;99.90
10437;DHT22;5265;50.006;9.202;2023-09-19T13:51:21;22.50;99.90
10437;DHT22;5265;50.006;9.202;2023-09-19T13:53:49;22.00;99.90
10437;DHT22;5265;50.006;9.202;2023-09-19T13:56:17;21.60;99.90
10437;DHT22;5265;50.006;9.202;2023-09-19T13:58:44;21.70;99.90
10437;DHT22;5265;50.006;9.202;2023-09-19T14:01:13;22.00;99.90
10437;DHT22;5265;50.006;9.202;2023-09-19T14:03:41;21.90;99.90
10437;DHT22;5265;50.006;9.202;2023-09-19T14:06:12;22.10;99.90
10437;DHT22;5265;50.006;9.202;2023-09-19T14:08:39;21.50;99.90
10437;DHT22;5265;50.006;9.202;2023-09-19T14:11:06;21.70;99.90
10437;DHT22;5265;50.006;9.202;2023-09-19T14:13:33;21.80;99.90
10437;DHT22;5265;50.006;9.202;2023-09-19T14:16:02;21.60;99.90
10437;DHT22;5265;50.006;9.202;2023-09-19T14:18:32;21.60;99.90
10437;DHT22;5265;50.006;9.202;2023-09-19T14:25:55;21.20;99.90
10437;DHT22;5265;50.006;9.202;2023-09-19T14:28:21;21.20;99.90
10437;DHT22;5265;50.006;9.202;2023-09-19T14:30:50;21.60;99.90
10437;DHT22;5265;50.006;9.202;2023-09-19T14:33:17;21.90;99.90
10437;DHT22;5265;50.006;9.202;2023-09-19T14:35:45;22.00;99.90
10437;DHT22;5265;50.006;9.202;2023-09-19T14:38:12;21.80;99.90
10437;DHT22;5265;50.006;9.202;2023-09-19T14:40:40;21.90;99.90
10437;DHT22;5265;50.006;9.202;2023-09-19T14:43:08;21.70;99.90
10437;DHT22;5265;50.006;9.202;2023-09-19T14:45:40;22.20;99.90
10437;DHT22;5265;50.006;9.202;2023-09-19T14:48:08;22.10;99.90
10437;DHT22;5265;50.006;9.202;2023-09-19T14:50:34;22.10;99.90
10437;DHT22;5265;50.006;9.202;2023-09-19T14:53:03;22.00;99.90
10437;DHT22;5265;50.006;9.202;2023-09-19T14:55:36;22.20;99.90
10437;DHT22;5265;50.006;9.202;2023-09-19T14:58:05;22.20;99.90
10437;DHT22;5265;50.006;9.202;2023-09-19T15:00:33;22.00;99.90
10437;DHT22;5265;50.006;9.202;2023-09-19T15:03:01;21.90;99.90
10437;DHT22;5265;50.006;9.202;2023-09-19T15:05:28;21.90;99.90
10437;DHT22;5265;50.006;9.202;2023-09-19T15:07:56;22.00;99.90
10437;DHT22;5265;50.006;9.202;2023-09-19T15:10:25;22.10;99.90
10437;DHT22;5265;50.006;9.202;2023-09-19T15:12:52;21.90;99.90
10437;DHT22;5265;50.006;9.202;2023-09-19T15:15:19;21.80;99.90
10437;DHT22;5265;50.006;9.202;2023-09-19T15:17:47;21.80;99.90
10437;DHT22;5265;50.006;9.202;2023-09-19T15:20:14;21.70;99.90
10437;DHT22;5265;50.006;9.202;2023-09-19T15:22:43;21.60;99.90
10437;DHT22;5265;50.006;9.202;2023-09-19T15:25:12;21.80;99.90
10437;DHT22;5265;50.006;9.202;2023-09-19T15:27:40;21.80;99.90
10437;DHT22;5265;50.006;9.202;2023-09-19T15:30:08;22.00;99.90
10437;DHT22;5265;50.006;9.202;2023-09-19T15:32:34;21.80;99.90
10437;DHT22;5265;50.006;9.202;2023-09-19T15:35:02;22.00;99.90
10437;DHT22;5265;50.006;9.202;2023-09-19T15:37:29;22.30;99.90
10437;DHT22;5265;50.006;9.202;2023-09-19T15:39:56;22.00;99.90
10437;DHT22;5265;50.006;9.202;2023-09-19T15:42:23;22.30;99.90
10437;DHT22;5265;50.006;9.202;2023-09-19T15:44:51;22.30;99.90
10437;DHT22;5265;50.006;9.202;2023-09-19T15:47:20;22.30;99.90
10437;DHT22;5265;50.006;9.202;2023-09-19T15:49:47;22.20;99.90
10437;DHT22;5265;50.006;9.202;2023-09-19T15:52:16;22.50;99.90
10437;DHT22;5265;50.006;9.202;2023-09-19T15:54:43;22.60;99.90
10437;DHT22;5265;50.006;9.202;2023-09-19T15:57:11;22.60;99.90
10437;DHT22;5265;50.006;9.202;2023-09-19T15:59:38;22.20;99.90
10437;DHT22;5265;50.006;9.202;2023-09-19T16:02:07;22.30;99.90
10437;DHT22;5265;50.006;9.202;2023-09-19T16:04:34;22.10;99.90
10437;DHT22;5265;50.006;9.202;2023-09-19T16:07:03;22.10;99.90
10437;DHT22;5265;50.006;9.202;2023-09-19T16:09:30;22.10;99.90
10437;DHT22;5265;50.006;9.202;2023-09-19T16:11:57;22.20;99.90
10437;DHT22;5265;50.006;9.202;2023-09-19T16:14:24;22.20;99.90
10437;DHT22;5265;50.006;9.202;2023-09-19T16:16:53;22.40;99.90
10437;DHT22;5265;50.006;9.202;2023-09-19T16:19:21;22.40;99.90
10437;DHT22;5265;50.006;9.202;2023-09-19T16:21:48;22.40;99.90
10437;DHT22;5265;50.006;9.202;2023-09-19T16:24:16;21.90;99.90
10437;DHT22;5265;50.006;9.202;2023-09-19T16:26:43;21.80;99.90
10437;DHT22;5265;50.006;9.202;2023-09-19T16:29:10;21.50;99.90
10437;DHT22;5265;50.006;9.202;2023-09-19T16:31:37;21.20;99.90
10437;DHT22;5265;50.006;9.202;2023-09-19T16:34:05;21.30;99.90
10437;DHT22;5265;50.006;9.202;2023-09-19T16:36:33;21.10;99.90
10437;DHT22;5265;50.006;9.202;2023-09-19T16:39:00;21.30;99.90
10437;DHT22;5265;50.006;9.202;2023-09-19T16:41:29;21.70;99.90
10437;DHT22;5265;50.006;9.202;2023-09-19T16:43:56;21.80;99.90
10437;DHT22;5265;50.006;9.202;2023-09-19T16:46:24;21.80;99.90
10437;DHT22;5265;50.006;9.202;2023-09-19T16:48:51;22.10;99.90
10437;DHT22;5265;50.006;9.202;2023-09-19T16:51:19;22.00;99.90
10437;DHT22;5265;50.006;9.202;2023-09-19T16:53:47;21.70;99.90
10437;DHT22;5265;50.006;9.202;2023-09-19T16:56:15;21.90;99.90
10437;DHT22;5265;50.006;9.202;2023-09-19T16:58:44;22.20;99.90
10437;DHT22;5265;50.006;9.202;2023-09-19T17:01:12;22.00;99.90
10437;DHT22;5265;50.006;9.202;2023-09-19T17:03:40;21.80;99.90
10437;DHT22;5265;50.006;9.202;2023-09-19T17:06:07;21.50;99.90
10437;DHT22;5265;50.006;9.202;2023-09-19T17:08:37;21.40;99.90
10437;DHT22;5265;50.006;9.202;2023-09-19T17:11:06;21.20;99.90
10437;DHT22;5265;50.006;9.202;2023-09-19T17:13:34;21.10;99.90
10437;DHT22;5265;50.006;9.202;2023-09-19T17:16:02;21.00;99.90
10437;DHT22;5265;50.006;9.202;2023-09-19T17:18:29;21.00;99.90
10437;DHT22;5265;50.006;9.202;2023-09-19T17:20:58;21.00;99.90
10437;DHT22;5265;50.006;9.202;2023-09-19T17:23:26;20.80;99.90
10437;DHT22;5265;50.006;9.202;2023-09-19T17:26:00;20.80;99.90
10437;DHT22;5265;50.006;9.202;2023-09-19T17:28:29;20.80;99.90
10437;DHT22;5265;50.006;9.202;2023-09-19T17:30:56;20.60;99.90
10437;DHT22;5265;50.006;9.202;2023-09-19T17:33:24;20.60;99.90
10437;DHT22;5265;50.006;9.202;2023-09-19T17:35:52;20.50;99.90
10437;DHT22;5265;50.006;9.202;2023-09-19T17:38:19;20.50;99.90
10437;DHT22;5265;50.006;9.202;2023-09-19T17:40:46;20.30;99.90
10437;DHT22;5265;50.006;9.202;2023-09-19T17:43:15;20.40;99.90
10437;DHT22;5265;50.006;9.202;2023-09-19T17:45:44;20.30;99.90
10437;DHT22;5265;50.006;9.202;2023-09-19T17:48:11;20.30;99.90
10437;DHT22;5265;50.006;9.202;2023-09-19T17:50:39;20.10;99.90
10437;DHT22;5265;50.006;9.202;2023-09-19T17:53:07;20.10;99.90
10437;DHT22;5265;50.006;9.202;2023-09-19T17:55:36;20.20;99.90
10437;DHT22;5265;50.006;9.202;2023-09-19T17:58:03;20.10;99.90
10437;DHT22;5265;50.006;9.202;2023-09-19T18:00:31;20.10;99.90
10437;DHT22;5265;50.006;9.202;2023-09-19T18:03:02;19.50;99.90
10437;DHT22;5265;50.006;9.202;2023-09-19T18:05:30;19.90;99.90
10437;DHT22;5265;50.006;9.202;2023-09-19T18:07:57;19.90;99.90
10437;DHT22;5265;50.006;9.202;2023-09-19T18:10:24;19.90;99.90
10437;DHT22;5265;50.006;9.202;2023-09-19T18:12:52;19.70;99.90
10437;DHT22;5265;50.006;9.202;2023-09-19T18:15:19;19.80;99.90
10437;DHT22;5265;50.006;9.202;2023-09-19T18:17:46;19.70;99.90
10437;DHT22;5265;50.006;9.202;2023-09-19T18:20:15;19.60;99.90
10437;DHT22;5265;50.006;9.202;2023-09-19T18:22:44;19.60;99.90
10437;DHT22;5265;50.006;9.202;2023-09-19T18:25:12;19.50;99.90
10437;DHT22;5265;50.006;9.202;2023-09-19T18:27:39;19.40;99.90
10437;DHT22;5265;50.006;9.202;2023-09-19T18:30:07;19.40;99.90
10437;DHT22;5265;50.006;9.202;2023-09-19T18:32:34;19.40;99.90
10437;DHT22;5265;50.006;9.202;2023-09-19T18:35:04;19.20;99.90
10437;DHT22;5265;50.006;9.202;2023-09-19T18:37:34;19.20;99.90
10437;DHT22;5265;50.006;9.202;2023-09-19T18:40:01;19.20;99.90
10437;DHT22;5265;50.006;9.202;2023-09-19T18:42:29;19.30;99.90
10437;DHT22;5265;50.006;9.202;2023-09-19T18:44:56;19.20;99.90
10437;DHT22;5265;50.006;9.202;2023-09-19T18:47:23;19.20;99.90
10437;DHT22;5265;50.006;9.202;2023-09-19T18:49:54;19.00;99.90
10437;DHT22;5265;50.006;9.202;2023-09-19T18:52:21;18.80;99.90
10437;DHT22;5265;50.006;9.202;2023-09-19T18:54:49;18.70;99.90
10437;DHT22;5265;50.006;9.202;2023-09-19T18:57:16;18.80;99.90
10437;DHT22;5265;50.006;9.202;2023-09-19T18:59:43;18.70;99.90
10437;DHT22;5265;50.006;9.202;2023-09-19T19:02:11;18.60;99.90
10437;DHT22;5265;50.006;9.202;2023-09-19T19:04:38;18.60;99.90
10437;DHT22;5265;50.006;9.202;2023-09-19T19:07:05;18.60;99.90
10437;DHT22;5265;50.006;9.202;2023-09-19T19:09:32;18.50;99.90
10437;DHT22;5265;50.006;9.202;2023-09-19T19:12:01;18.40;99.90
10437;DHT22;5265;50.006;9.202;2023-09-19T19:14:28;18.60;99.90
10437;DHT22;5265;50.006;9.202;2023-09-19T19:16:55;18.20;99.90
10437;DHT22;5265;50.006;9.202;2023-09-19T19:19:24;18.00;99.90
10437;DHT22;5265;50.006;9.202;2023-09-19T19:21:51;17.90;99.90
10437;DHT22;5265;50.006;9.202;2023-09-19T19:26:48;17.80;99.90
10437;DHT22;5265;50.006;9.202;2023-09-19T19:31:45;17.50;99.90
10437;DHT22;5265;50.006;9.202;2023-09-19T19:36:40;17.50;99.90
